createdAt,value
2023-02-11T00:00:58.395Z,38.50
2023-02-11T00:03:25.330Z,38.72
2023-02-11T00:06:02.958Z,39.22
2023-02-11T00:08:29.669Z,37.42
2023-02-11T00:10:58.267Z,42.22
2023-02-11T00:13:25.408Z,39.90
2023-02-11T00:15:52.492Z,38.50
2023-02-11T00:18:19.253Z,38.08
2023-02-11T00:20:46.138Z,37.10
2023-02-11T00:23:13.029Z,37.13
2023-02-11T00:25:45.264Z,37.13
2023-02-11T00:28:12.511Z,39.10
2023-02-11T00:30:39.465Z,37.28
2023-02-11T00:33:06.268Z,37.03
2023-02-11T00:35:32.935Z,41.00
2023-02-11T00:37:59.646Z,38.45
2023-02-11T00:40:26.325Z,37.53
2023-02-11T00:42:53.036Z,38.25
2023-02-11T00:45:21.169Z,37.92
2023-02-11T00:47:48.015Z,36.95
2023-02-11T00:50:14.994Z,37.08
2023-02-11T00:52:41.690Z,36.70
2023-02-11T00:55:08.599Z,37.28
2023-02-11T00:57:35.288Z,38.75
2023-02-11T01:00:02.321Z,37.53
2023-02-11T01:02:29.009Z,36.40
2023-02-11T01:04:55.694Z,35.63
2023-02-11T01:07:22.443Z,37.00
2023-02-11T01:09:49.108Z,36.00
2023-02-11T01:12:15.870Z,37.95
2023-02-11T01:14:42.700Z,35.75
2023-02-11T01:17:09.724Z,37.72
2023-02-11T01:19:39.898Z,34.67
2023-02-11T01:22:06.860Z,37.83
2023-02-11T01:24:33.654Z,37.20
2023-02-11T01:27:00.387Z,38.03
2023-02-11T01:29:27.048Z,37.30
2023-02-11T01:31:53.756Z,38.17
2023-02-11T01:34:20.449Z,37.03
2023-02-11T01:36:47.148Z,37.78
2023-02-11T01:39:13.805Z,36.45
2023-02-11T01:41:40.478Z,36.95
2023-02-11T01:44:38.261Z,37.47
2023-02-11T01:47:06.379Z,36.05
2023-02-11T01:49:36.442Z,37.15
2023-02-11T01:52:12.449Z,34.95
2023-02-11T01:57:31.925Z,35.45
2023-02-11T02:00:22.514Z,35.97
2023-02-11T02:02:58.733Z,34.70
2023-02-11T02:05:31.027Z,36.45
2023-02-11T02:08:35.353Z,35.08
2023-02-11T02:11:03.373Z,33.70
2023-02-11T02:13:32.399Z,33.78
2023-02-11T02:16:04.524Z,34.13
2023-02-11T02:18:34.369Z,34.53
2023-02-11T02:21:32.067Z,37.20
2023-02-11T02:24:36.175Z,33.00
2023-02-11T02:27:33.839Z,34.63
2023-02-11T02:30:03.615Z,35.00
2023-02-11T02:33:25.319Z,35.92
2023-02-11T02:36:21.123Z,36.80
2023-02-11T02:39:23.946Z,33.42
2023-02-11T02:41:52.801Z,35.38
2023-02-11T02:44:20.572Z,35.90
2023-02-11T02:46:47.258Z,34.78
2023-02-11T02:49:15.802Z,35.33
2023-02-11T02:52:11.350Z,33.58
2023-02-11T02:54:56.556Z,33.90
2023-02-11T02:57:44.642Z,34.40
2023-02-11T03:00:30.313Z,32.55
2023-02-11T03:03:20.545Z,32.10
2023-02-11T03:06:04.207Z,32.83
2023-02-11T03:08:51.043Z,30.92
2023-02-11T03:11:20.263Z,34.42
2023-02-11T03:13:48.514Z,32.80
2023-02-11T03:16:20.560Z,33.92
2023-02-11T03:18:52.046Z,32.50
2023-02-11T03:21:20.757Z,35.42
2023-02-11T03:23:50.877Z,34.50
2023-02-11T03:26:26.844Z,34.20
2023-02-11T03:33:59.930Z,31.80
2023-02-11T03:36:55.901Z,31.45
2023-02-11T03:39:30.666Z,34.27
2023-02-11T03:41:59.565Z,30.48
2023-02-11T03:44:31.205Z,31.50
2023-02-11T03:46:59.282Z,31.92
2023-02-11T03:49:28.526Z,32.58
2023-02-11T03:51:56.529Z,33.17
2023-02-11T03:54:30.761Z,31.88
2023-02-11T03:57:00.634Z,31.17
2023-02-11T03:59:27.719Z,32.95
2023-02-11T04:01:55.136Z,32.45
2023-02-11T04:04:21.893Z,31.90
2023-02-11T04:06:48.630Z,29.52
2023-02-11T04:09:16.411Z,31.27
2023-02-11T04:11:43.100Z,31.48
2023-02-11T04:14:09.769Z,30.98
2023-02-11T04:16:36.500Z,31.67
2023-02-11T04:19:03.237Z,33.20
2023-02-11T04:21:29.885Z,28.13
2023-02-11T04:23:56.630Z,32.97
2023-02-11T04:26:23.362Z,31.40
2023-02-11T04:28:50.084Z,31.50
2023-02-11T04:31:16.863Z,29.80
2023-02-11T04:33:43.570Z,31.08
2023-02-11T04:36:10.205Z,31.98
2023-02-11T04:38:36.898Z,31.00
2023-02-11T04:41:03.620Z,29.73
2023-02-11T04:43:30.284Z,28.63
2023-02-11T04:45:58.773Z,31.17
2023-02-11T04:48:25.845Z,30.00
2023-02-11T04:50:52.633Z,28.00
2023-02-11T04:53:19.376Z,29.30
2023-02-11T04:55:50.562Z,28.88
2023-02-11T04:58:18.208Z,28.05
2023-02-11T05:00:45.068Z,29.45
2023-02-11T05:03:12.399Z,30.00
2023-02-11T05:05:40.624Z,31.60
2023-02-11T05:08:08.421Z,28.75
2023-02-11T05:10:35.863Z,29.25
2023-02-11T05:13:03.279Z,29.05
2023-02-11T05:15:31.152Z,31.55
2023-02-11T05:17:57.813Z,32.83
2023-02-11T05:20:24.509Z,32.03
2023-02-11T05:22:51.714Z,30.90
2023-02-11T05:25:18.568Z,31.65
2023-02-11T05:27:45.281Z,31.30
2023-02-11T05:30:12.270Z,31.25
2023-02-11T05:32:39.013Z,33.03
2023-02-11T05:35:06.076Z,29.50
2023-02-11T05:37:32.846Z,28.98
2023-02-11T05:39:59.517Z,32.10
2023-02-11T05:42:26.176Z,30.80
2023-02-11T05:44:52.870Z,30.30
2023-02-11T05:47:19.657Z,30.08
2023-02-11T05:49:46.319Z,30.17
2023-02-11T05:52:13.041Z,31.15
2023-02-11T05:54:39.708Z,28.52
2023-02-11T05:57:06.515Z,30.52
2023-02-11T05:59:33.161Z,28.60
2023-02-11T06:01:59.861Z,29.23
2023-02-11T06:04:26.582Z,28.65
2023-02-11T06:06:53.204Z,31.23
2023-02-11T06:09:20.048Z,29.77
2023-02-11T06:11:46.694Z,31.08
2023-02-11T06:14:14.301Z,29.60
2023-02-11T06:16:40.999Z,31.40
2023-02-11T06:19:07.743Z,31.67
2023-02-11T06:21:43.389Z,31.42
2023-02-11T06:26:37.158Z,29.52
2023-02-11T06:29:03.797Z,28.75
2023-02-11T06:31:30.614Z,31.10
2023-02-11T06:33:58.410Z,31.63
2023-02-11T06:36:25.524Z,29.20
2023-02-11T06:38:53.406Z,27.80
2023-02-11T06:41:20.561Z,27.90
2023-02-11T06:43:47.558Z,26.73
2023-02-11T06:46:14.785Z,30.30
2023-02-11T06:48:44.396Z,29.27
2023-02-11T06:51:13.360Z,28.52
2023-02-11T06:53:43.768Z,29.60
2023-02-11T06:56:16.031Z,28.33
2023-02-11T06:58:42.778Z,27.45
2023-02-11T07:01:12.355Z,25.40
2023-02-11T07:03:41.387Z,27.95
2023-02-11T07:06:08.811Z,28.80
2023-02-11T07:08:37.144Z,27.42
2023-02-11T07:11:37.706Z,26.60
2023-02-11T07:14:08.323Z,27.52
2023-02-11T07:16:35.637Z,28.55
2023-02-11T07:19:02.419Z,29.02
2023-02-11T07:21:29.074Z,28.92
2023-02-11T07:23:55.743Z,27.83
2023-02-11T07:26:23.619Z,27.02
2023-02-11T07:28:51.381Z,26.30
2023-02-11T07:31:24.041Z,26.15
2023-02-11T07:33:52.916Z,26.45
2023-02-11T07:36:19.832Z,27.00
2023-02-11T07:38:47.112Z,27.55
2023-02-11T07:41:17.409Z,27.13
2023-02-11T07:43:45.142Z,34.85
2023-02-11T07:46:24.164Z,36.65
2023-02-11T07:48:51.949Z,26.08
2023-02-11T07:51:31.795Z,30.00
2023-02-11T07:54:00.081Z,25.85
2023-02-11T07:56:27.995Z,27.20
2023-02-11T07:58:55.467Z,25.58
2023-02-11T08:01:25.383Z,27.80
2023-02-11T08:03:52.921Z,27.77
2023-02-11T08:06:21.656Z,31.63
2023-02-11T08:08:48.901Z,30.75
2023-02-11T08:11:21.284Z,27.08
2023-02-11T08:13:48.292Z,27.27
2023-02-11T08:16:34.873Z,26.13
2023-02-11T08:19:04.976Z,27.23
2023-02-11T08:21:31.693Z,26.75
2023-02-11T08:23:58.835Z,26.65
2023-02-11T08:26:28.923Z,26.35
2023-02-11T08:28:57.070Z,25.35
2023-02-11T08:31:30.006Z,25.83
2023-02-11T08:33:58.198Z,25.02
2023-02-11T08:36:28.990Z,25.08
2023-02-11T08:39:17.374Z,25.17
2023-02-11T08:41:48.361Z,24.55
2023-02-11T08:44:15.024Z,27.58
2023-02-11T08:46:41.719Z,26.15
2023-02-11T08:49:08.614Z,24.67
2023-02-11T08:51:35.324Z,26.20
2023-02-11T08:54:02.173Z,27.67
2023-02-11T08:56:31.333Z,26.23
2023-02-11T08:58:58.092Z,25.40
2023-02-11T09:01:28.407Z,26.80
2023-02-11T09:03:55.951Z,26.98
2023-02-11T09:06:24.236Z,26.13
2023-02-11T09:08:53.829Z,24.05
2023-02-11T09:11:25.368Z,24.58
2023-02-11T09:13:54.398Z,25.90
2023-02-11T09:16:23.966Z,25.20
2023-02-11T09:18:51.206Z,23.80
2023-02-11T09:21:19.164Z,24.35
2023-02-11T09:23:47.648Z,24.42
2023-02-11T09:26:20.342Z,23.35
2023-02-11T09:28:47.760Z,24.58
2023-02-11T09:31:23.581Z,23.77
2023-02-11T09:33:53.505Z,23.70
2023-02-11T09:36:22.728Z,22.45
2023-02-11T09:38:50.200Z,23.55
2023-02-11T09:41:47.857Z,24.58
2023-02-11T09:44:22.345Z,26.33
2023-02-11T09:47:21.218Z,24.65
2023-02-11T09:49:52.725Z,32.00
2023-02-11T09:53:00.995Z,27.40
2023-02-11T09:55:37.460Z,25.42
2023-02-11T09:58:11.295Z,24.80
2023-02-11T10:01:08.427Z,22.95
2023-02-11T10:04:12.841Z,31.40
2023-02-11T10:07:01.690Z,34.03
2023-02-11T10:09:44.639Z,24.13
2023-02-11T10:12:32.976Z,23.88
2023-02-11T10:15:11.895Z,23.33
2023-02-11T10:18:12.670Z,23.60
2023-02-11T10:21:06.675Z,24.40
2023-02-11T10:23:41.167Z,23.00
2023-02-11T10:26:17.582Z,23.17
2023-02-11T10:28:54.268Z,25.58
2023-02-11T10:31:35.736Z,22.60
2023-02-11T10:34:11.474Z,26.33
2023-02-11T10:36:41.301Z,25.70
2023-02-11T10:39:25.856Z,25.38
2023-02-11T10:42:12.617Z,27.15
2023-02-11T10:45:07.199Z,30.85
2023-02-11T10:47:38.416Z,23.23
2023-02-11T10:50:37.282Z,22.33
2023-02-11T10:53:24.331Z,24.55
2023-02-11T10:55:55.723Z,24.85
2023-02-11T10:58:30.409Z,22.00
2023-02-11T11:01:00.068Z,21.15
2023-02-11T11:03:32.019Z,23.17
2023-02-11T11:06:08.689Z,22.65
2023-02-11T11:08:50.781Z,21.48
2023-02-11T11:11:20.184Z,23.73
2023-02-11T11:13:58.166Z,20.95
2023-02-11T11:16:29.321Z,20.88
2023-02-11T11:19:08.376Z,19.90
2023-02-11T11:21:44.112Z,21.10
2023-02-11T11:24:16.964Z,21.73
2023-02-11T11:27:04.228Z,32.25
2023-02-11T11:29:33.654Z,22.73
2023-02-11T11:32:20.732Z,25.27
2023-02-11T11:34:56.634Z,23.25
2023-02-11T11:37:27.643Z,22.70
2023-02-11T11:39:57.289Z,23.15
2023-02-11T11:42:30.788Z,22.65
2023-02-11T11:45:24.900Z,22.90
2023-02-11T11:48:03.247Z,21.73
2023-02-11T11:50:39.751Z,22.02
2023-02-11T11:53:39.087Z,21.30
2023-02-11T11:56:19.227Z,23.15
2023-02-11T11:58:46.048Z,21.63
2023-02-11T12:01:36.526Z,21.45
2023-02-11T12:04:32.795Z,20.67
2023-02-11T12:07:05.464Z,21.53
2023-02-11T12:10:01.193Z,22.00
2023-02-11T12:12:32.491Z,23.42
2023-02-11T12:15:25.161Z,21.30
2023-02-11T12:18:04.367Z,23.10
2023-02-11T12:21:05.535Z,21.88
2023-02-11T12:24:00.847Z,21.05
2023-02-11T12:26:52.658Z,21.10
2023-02-11T12:29:43.246Z,21.95
2023-02-11T12:32:36.414Z,21.98
2023-02-11T12:35:41.220Z,21.67
2023-02-11T12:38:29.510Z,21.65
2023-02-11T12:41:43.046Z,21.13
2023-02-11T12:44:21.534Z,22.33
2023-02-11T12:47:02.203Z,22.00
2023-02-11T12:49:56.494Z,21.92
2023-02-11T12:52:53.519Z,20.58
2023-02-11T12:57:51.924Z,20.88
2023-02-11T13:00:25.375Z,22.10
2023-02-11T13:03:09.411Z,23.58
2023-02-11T13:05:56.907Z,26.48
2023-02-11T13:08:34.236Z,21.83
2023-02-11T13:11:27.254Z,20.45
2023-02-11T13:14:26.884Z,22.38
2023-02-11T13:16:55.054Z,25.63
2023-02-11T13:19:39.063Z,21.52
2023-02-11T13:22:08.914Z,24.05
2023-02-11T13:24:48.602Z,19.58
2023-02-11T13:27:24.269Z,21.38
2023-02-11T13:30:11.786Z,21.13
2023-02-11T13:32:57.039Z,20.25
2023-02-11T13:35:29.322Z,21.02
2023-02-11T13:37:57.497Z,20.80
2023-02-11T13:40:28.416Z,23.02
2023-02-11T13:42:58.351Z,20.23
2023-02-11T13:45:38.593Z,21.50
2023-02-11T13:48:15.254Z,20.92
2023-02-11T13:50:48.470Z,20.77
2023-02-11T13:53:17.152Z,20.85
2023-02-11T13:55:51.121Z,21.20
2023-02-11T13:58:29.027Z,20.13
2023-02-11T14:00:55.987Z,20.83
2023-02-11T14:03:45.015Z,23.63
2023-02-11T14:06:33.340Z,20.20
2023-02-11T14:09:09.294Z,22.90
2023-02-11T14:11:43.807Z,21.73
2023-02-11T14:14:33.445Z,22.45
2023-02-11T14:17:00.294Z,21.05
2023-02-11T14:19:45.015Z,23.27
2023-02-11T14:22:15.142Z,19.63
2023-02-11T14:24:59.213Z,21.45
2023-02-11T14:27:51.320Z,22.77
2023-02-11T14:30:26.718Z,21.00
2023-02-11T14:33:04.795Z,21.67
2023-02-11T14:36:12.093Z,21.05
2023-02-11T14:38:58.876Z,21.50
2023-02-11T14:41:27.170Z,22.30
2023-02-11T14:43:56.715Z,21.77
2023-02-11T14:46:25.204Z,23.42
2023-02-11T14:48:55.228Z,24.23
2023-02-11T14:51:26.595Z,26.08
2023-02-11T14:53:57.823Z,27.05
2023-02-11T14:56:27.826Z,23.77
2023-02-11T14:58:55.439Z,21.77
2023-02-11T15:01:36.641Z,22.10
2023-02-11T15:04:06.130Z,21.80
2023-02-11T15:06:39.327Z,22.88
2023-02-11T15:09:05.976Z,23.15
2023-02-11T15:11:39.729Z,22.33
2023-02-11T15:14:31.651Z,25.80
2023-02-11T15:17:09.109Z,23.65
2023-02-11T15:19:42.027Z,25.92
2023-02-11T15:22:18.720Z,23.90
2023-02-11T15:24:45.950Z,23.58
2023-02-11T15:27:18.495Z,22.85
2023-02-11T15:29:49.326Z,23.52
2023-02-11T15:32:19.698Z,22.13
2023-02-11T15:34:47.869Z,22.33
2023-02-11T15:37:22.187Z,21.63
2023-02-11T15:39:49.921Z,23.27
2023-02-11T15:42:23.893Z,22.00
2023-02-11T15:45:13.659Z,28.50
2023-02-11T15:47:55.595Z,33.65
2023-02-11T15:50:28.763Z,28.35
2023-02-11T15:52:59.282Z,24.40
2023-02-11T15:55:28.568Z,24.13
2023-02-11T15:57:58.446Z,22.02
2023-02-11T16:00:33.801Z,23.98
2023-02-11T16:03:00.619Z,24.88
2023-02-11T16:05:28.704Z,29.00
2023-02-11T16:07:56.793Z,25.20
2023-02-11T16:10:32.038Z,39.35
2023-02-11T16:13:07.516Z,27.77
2023-02-11T16:15:34.194Z,24.25
2023-02-11T16:18:31.037Z,29.85
2023-02-11T16:21:05.311Z,25.45
2023-02-11T16:23:38.168Z,23.17
2023-02-11T16:26:10.673Z,23.58
2023-02-11T16:28:38.217Z,25.63
2023-02-11T16:31:05.990Z,24.27
2023-02-11T16:33:32.793Z,23.90
2023-02-11T16:36:02.055Z,22.67
2023-02-11T16:38:29.876Z,23.48
2023-02-11T16:40:56.575Z,22.85
2023-02-11T16:43:23.317Z,21.30
2023-02-11T16:45:50.634Z,24.08
2023-02-11T16:48:19.584Z,25.42
2023-02-11T16:50:52.147Z,23.73
2023-02-11T16:53:25.088Z,24.85
2023-02-11T16:55:53.032Z,22.00
2023-02-11T16:58:19.974Z,23.15
2023-02-11T17:00:48.333Z,24.98
2023-02-11T17:03:22.793Z,22.63
2023-02-11T17:05:55.626Z,25.08
2023-02-11T17:08:22.778Z,24.25
2023-02-11T17:10:49.983Z,24.65
2023-02-11T17:13:16.859Z,21.90
2023-02-11T17:15:43.584Z,22.55
2023-02-11T17:18:13.890Z,21.90
2023-02-11T17:20:41.092Z,21.77
2023-02-11T17:23:08.051Z,21.65
2023-02-11T17:25:37.236Z,23.75
2023-02-11T17:28:08.902Z,26.02
2023-02-11T17:30:35.845Z,24.92
2023-02-11T17:33:02.569Z,22.73
2023-02-11T17:35:29.395Z,22.00
2023-02-11T17:37:57.933Z,21.77
2023-02-11T17:40:24.631Z,22.25
2023-02-11T17:42:55.928Z,21.85
2023-02-11T17:45:22.701Z,23.20
2023-02-11T17:47:49.691Z,21.17
2023-02-11T17:50:16.568Z,22.45
2023-02-11T17:52:43.300Z,21.60
2023-02-11T17:55:10.023Z,23.65
2023-02-11T17:57:36.789Z,22.10
2023-02-11T18:00:06.402Z,20.77
2023-02-11T18:02:33.538Z,21.92
2023-02-11T18:05:03.042Z,20.95
2023-02-11T18:07:30.236Z,21.67
2023-02-11T18:09:57.020Z,21.90
2023-02-11T18:12:26.670Z,23.65
2023-02-11T18:14:58.269Z,22.17
2023-02-11T18:17:25.463Z,21.50
2023-02-11T18:19:55.675Z,22.30
2023-02-11T18:22:22.921Z,22.77
2023-02-11T18:24:55.581Z,22.08
2023-02-11T18:27:22.872Z,22.88
2023-02-11T18:29:49.603Z,22.10
2023-02-11T18:32:16.507Z,24.88
2023-02-11T18:34:43.257Z,23.23
2023-02-11T18:37:10.317Z,23.80
2023-02-11T18:39:37.130Z,22.95
2023-02-11T18:42:03.958Z,22.63
2023-02-11T18:44:30.698Z,22.27
2023-02-11T18:46:57.519Z,22.30
2023-02-11T18:49:24.299Z,22.90
2023-02-11T18:51:51.005Z,23.40
2023-02-11T18:54:17.814Z,23.23
2023-02-11T18:56:44.578Z,23.20
2023-02-11T18:59:11.405Z,23.70
2023-02-11T19:01:40.678Z,22.67
2023-02-11T19:04:07.402Z,24.95
2023-02-11T19:06:36.746Z,23.98
2023-02-11T19:09:09.905Z,26.27
2023-02-11T19:11:47.936Z,27.50
2023-02-11T19:14:21.065Z,26.35
2023-02-11T19:16:50.485Z,24.75
2023-02-11T19:19:17.886Z,24.25
2023-02-11T19:21:45.962Z,24.65
2023-02-11T19:24:15.498Z,24.08
2023-02-11T19:26:42.579Z,24.23
2023-02-11T19:29:09.478Z,24.60
2023-02-11T19:31:36.263Z,24.23
2023-02-11T19:34:03.673Z,23.95
2023-02-11T19:36:30.643Z,23.52
2023-02-11T19:39:00.987Z,24.23
2023-02-11T19:41:29.116Z,24.17
2023-02-11T19:44:00.915Z,71.70
2023-02-11T19:46:30.916Z,44.63
2023-02-11T19:49:00.196Z,33.75
2023-02-11T19:51:27.490Z,73.32
2023-02-11T19:53:54.223Z,34.25
2023-02-11T19:56:22.293Z,37.08
2023-02-11T19:58:49.021Z,34.92
2023-02-11T20:01:19.389Z,33.08
2023-02-11T20:03:50.000Z,35.83
2023-02-11T20:06:23.436Z,30.60
2023-02-11T20:09:14.534Z,30.13
2023-02-11T20:11:41.590Z,25.05
2023-02-11T20:14:10.462Z,24.90
2023-02-11T20:16:47.950Z,26.10
2023-02-11T20:19:18.008Z,24.83
2023-02-11T20:21:47.165Z,26.92
2023-02-11T20:24:15.305Z,26.63
2023-02-11T20:26:42.503Z,24.42
2023-02-11T20:29:09.936Z,25.48
2023-02-11T20:31:36.967Z,26.88
2023-02-11T20:34:03.966Z,23.45
2023-02-11T20:36:35.471Z,25.80
2023-02-11T20:39:04.811Z,25.00
2023-02-11T20:41:34.294Z,25.73
2023-02-11T20:44:04.629Z,25.13
2023-02-11T20:46:33.073Z,25.75
2023-02-11T20:49:00.558Z,24.80
2023-02-11T20:51:30.355Z,24.17
2023-02-11T20:53:57.765Z,25.58
2023-02-11T20:56:28.649Z,27.80
2023-02-11T20:58:57.562Z,26.10
2023-02-11T21:01:53.542Z,24.58
2023-02-11T21:04:25.632Z,25.15
2023-02-11T21:06:56.026Z,28.17
2023-02-11T21:09:25.055Z,28.55
2023-02-11T21:11:52.996Z,27.83
2023-02-11T21:14:22.204Z,27.77
2023-02-11T21:16:49.177Z,24.30
2023-02-11T21:19:16.793Z,23.58
2023-02-11T21:21:43.992Z,23.50
2023-02-11T21:24:11.223Z,22.88
2023-02-11T21:26:38.416Z,23.77
2023-02-11T21:29:07.203Z,23.67
2023-02-11T21:31:35.239Z,24.65
2023-02-11T21:34:02.504Z,22.63
2023-02-11T21:36:30.201Z,23.10
2023-02-11T21:38:57.157Z,23.65
2023-02-11T21:41:24.795Z,26.75
2023-02-11T21:43:52.329Z,25.38
2023-02-11T21:46:20.378Z,27.35
2023-02-11T21:48:47.816Z,23.83
2023-02-11T21:51:20.762Z,24.08
2023-02-11T21:53:47.770Z,25.02
2023-02-11T21:56:17.639Z,26.50
2023-02-11T21:58:45.706Z,26.08
2023-02-11T22:01:21.365Z,25.48
2023-02-11T22:03:48.489Z,25.88
2023-02-11T22:06:18.444Z,25.88
2023-02-11T22:08:45.108Z,25.55
2023-02-11T22:11:12.865Z,26.13
2023-02-11T22:13:40.649Z,27.25
2023-02-11T22:16:10.643Z,24.70
2023-02-11T22:18:37.865Z,24.42
2023-02-11T22:21:16.757Z,24.25
2023-02-11T22:23:43.881Z,25.20
2023-02-11T22:26:17.153Z,24.38
2023-02-11T22:28:44.313Z,26.02
2023-02-11T22:31:20.310Z,25.05
2023-02-11T22:36:22.601Z,23.83
2023-02-11T22:38:49.712Z,23.65
2023-02-11T22:41:18.412Z,21.80
2023-02-11T22:43:45.395Z,22.42
2023-02-11T22:46:15.147Z,22.88
2023-02-11T22:48:42.063Z,22.67
2023-02-11T22:51:41.195Z,22.90
2023-02-11T22:54:12.199Z,22.45
2023-02-11T22:56:38.942Z,22.40
2023-02-11T22:59:10.704Z,21.73
2023-02-11T23:01:37.843Z,22.25
2023-02-11T23:04:06.878Z,22.65
2023-02-11T23:06:34.461Z,23.00
2023-02-11T23:09:03.752Z,23.45
2023-02-11T23:11:31.565Z,25.73
2023-02-11T23:13:58.822Z,25.85
2023-02-11T23:16:28.793Z,25.10
2023-02-11T23:18:55.565Z,25.73
2023-02-11T23:21:28.230Z,24.52
2023-02-11T23:24:01.393Z,26.00
2023-02-11T23:26:28.669Z,28.27
2023-02-11T23:28:57.974Z,28.85
2023-02-11T23:31:30.560Z,27.83
2023-02-11T23:33:57.652Z,29.45
2023-02-11T23:36:24.408Z,29.17
2023-02-11T23:38:51.377Z,30.30
2023-02-11T23:41:18.689Z,31.75
2023-02-11T23:43:50.551Z,26.05
2023-02-11T23:46:17.339Z,26.15
2023-02-11T23:48:44.165Z,25.52
2023-02-11T23:51:11.041Z,23.73
2023-02-11T23:53:38.939Z,24.17
2023-02-11T23:56:13.314Z,23.75
2023-02-11T23:58:40.041Z,23.98
